createdAt,value
2022-10-17T00:02:09.919Z,96.49
2022-10-17T00:04:36.687Z,97.59
2022-10-17T00:07:03.311Z,97.26
2022-10-17T00:09:29.978Z,97.06
2022-10-17T00:11:56.869Z,97.13
2022-10-17T00:14:23.436Z,97.65
2022-10-17T00:16:50.095Z,98.36
2022-10-17T00:19:16.730Z,97.47
2022-10-17T00:21:43.398Z,96.99
2022-10-17T00:24:10.010Z,96.52
2022-10-17T00:26:36.668Z,96.56
2022-10-17T00:29:03.356Z,96.54
2022-10-17T00:31:30.021Z,96.75
2022-10-17T00:33:56.681Z,97.73
2022-10-17T00:36:27.464Z,98.23
2022-10-17T00:38:56.507Z,98.10
2022-10-17T00:41:24.825Z,98.47
2022-10-17T00:43:56.845Z,97.88
2022-10-17T00:46:24.988Z,98.13
2022-10-17T00:48:52.743Z,97.62
2022-10-17T00:51:20.428Z,97.21
2022-10-17T00:53:47.051Z,97.11
2022-10-17T00:56:13.902Z,97.40
2022-10-17T00:58:40.507Z,97.01
2022-10-17T01:01:07.110Z,96.44
2022-10-17T01:03:33.801Z,97.29
2022-10-17T01:06:00.583Z,97.55
2022-10-17T01:08:27.242Z,96.24
2022-10-17T01:10:59.833Z,97.48
2022-10-17T01:13:48.693Z,97.19
2022-10-17T01:16:29.650Z,98.33
2022-10-17T01:19:03.785Z,97.30
2022-10-17T01:21:54.100Z,98.17
2022-10-17T01:24:49.382Z,97.89
2022-10-17T01:27:37.227Z,97.56
2022-10-17T01:30:29.538Z,97.34
2022-10-17T01:33:08.572Z,96.82
2022-10-17T01:35:41.754Z,96.74
2022-10-17T01:38:14.165Z,96.27
2022-10-17T01:40:51.096Z,97.28
2022-10-17T01:43:23.659Z,96.83
2022-10-17T01:45:59.221Z,97.02
2022-10-17T01:48:28.157Z,96.98
2022-10-17T01:51:01.477Z,96.26
2022-10-17T01:53:31.865Z,97.15
2022-10-17T01:56:00.312Z,96.95
2022-10-17T01:58:32.710Z,97.62
2022-10-17T02:01:04.896Z,97.14
2022-10-17T02:03:31.633Z,97.54
2022-10-17T02:05:58.258Z,97.72
2022-10-17T02:08:26.338Z,97.55
2022-10-17T02:11:02.893Z,96.44
2022-10-17T02:13:54.332Z,96.53
2022-10-17T02:16:55.149Z,97.34
2022-10-17T02:19:46.573Z,97.61
2022-10-17T02:22:17.661Z,97.96
2022-10-17T02:24:48.717Z,97.92
2022-10-17T02:27:21.158Z,97.27
2022-10-17T02:29:49.202Z,97.56
2022-10-17T02:32:46.690Z,97.65
2022-10-17T02:35:16.186Z,98.08
2022-10-17T02:37:43.580Z,98.29
2022-10-17T02:40:10.751Z,98.38
2022-10-17T02:42:37.367Z,98.55
2022-10-17T02:45:04.884Z,98.47
2022-10-17T02:47:36.720Z,97.71
2022-10-17T02:50:03.510Z,97.81
2022-10-17T02:52:39.047Z,98.51
2022-10-17T02:55:08.453Z,98.67
2022-10-17T02:58:00.306Z,97.10
2022-10-17T03:00:27.014Z,97.30
2022-10-17T03:02:53.877Z,97.12
2022-10-17T03:05:25.421Z,97.42
2022-10-17T03:07:52.262Z,97.22
2022-10-17T03:10:19.596Z,97.70
2022-10-17T03:12:46.240Z,96.28
2022-10-17T03:15:13.404Z,97.48
2022-10-17T03:17:40.091Z,96.97
2022-10-17T03:20:07.278Z,97.35
2022-10-17T03:22:33.917Z,97.93
2022-10-17T03:25:00.532Z,97.80
2022-10-17T03:27:27.270Z,98.91
2022-10-17T03:29:54.234Z,99.27
2022-10-17T03:32:22.104Z,99.59
2022-10-17T03:34:48.743Z,99.72
2022-10-17T03:37:15.418Z,99.20
2022-10-17T03:39:42.031Z,100.00
2022-10-17T03:42:08.820Z,100.00
2022-10-17T03:44:35.454Z,100.00
2022-10-17T03:47:02.098Z,100.00
2022-10-17T03:49:28.686Z,100.00
2022-10-17T03:51:55.277Z,100.00
2022-10-17T03:54:22.001Z,99.33
2022-10-17T03:56:48.659Z,99.49
2022-10-17T03:59:15.377Z,99.78
2022-10-17T04:01:42.161Z,99.65
2022-10-17T04:04:08.921Z,100.00
2022-10-17T04:06:35.870Z,100.00
2022-10-17T04:09:02.629Z,99.92
2022-10-17T04:11:29.313Z,99.53
2022-10-17T04:13:56.508Z,99.75
2022-10-17T04:16:23.673Z,100.00
2022-10-17T04:19:16.632Z,100.00
2022-10-17T04:21:43.273Z,100.00
2022-10-17T04:24:10.768Z,100.00
2022-10-17T04:26:37.419Z,100.00
2022-10-17T04:29:03.984Z,100.00
2022-10-17T04:31:30.584Z,100.00
2022-10-17T04:33:57.247Z,100.00
2022-10-17T04:36:24.023Z,100.00
2022-10-17T04:38:50.856Z,100.00
2022-10-17T04:41:18.008Z,100.00
2022-10-17T04:43:47.000Z,100.00
2022-10-17T04:46:16.876Z,100.00
2022-10-17T04:48:43.561Z,100.00
2022-10-17T04:51:14.678Z,100.00
2022-10-17T04:53:42.038Z,100.00
2022-10-17T04:56:13.691Z,100.00
2022-10-17T04:58:40.686Z,100.00
2022-10-17T05:01:12.844Z,100.00
2022-10-17T05:03:40.005Z,100.00
2022-10-17T05:06:07.637Z,100.00
2022-10-17T05:08:34.916Z,100.00
2022-10-17T05:11:01.793Z,100.00
2022-10-17T05:13:28.402Z,100.00
2022-10-17T05:15:59.027Z,100.00
2022-10-17T05:18:26.043Z,100.00
2022-10-17T05:20:52.704Z,100.00
2022-10-17T05:23:19.300Z,100.00
2022-10-17T05:25:45.893Z,100.00
2022-10-17T05:28:12.497Z,100.00
2022-10-17T05:30:39.113Z,100.00
2022-10-17T05:33:05.722Z,100.00
2022-10-17T05:35:32.817Z,100.00
2022-10-17T05:37:59.397Z,100.00
2022-10-17T05:40:25.997Z,100.00
2022-10-17T05:42:52.769Z,100.00
2022-10-17T05:45:20.157Z,100.00
2022-10-17T05:47:46.777Z,100.00
2022-10-17T05:50:13.407Z,100.00
2022-10-17T05:52:40.555Z,100.00
2022-10-17T05:55:09.070Z,100.00
2022-10-17T05:57:35.745Z,100.00
2022-10-17T06:00:02.359Z,100.00
2022-10-17T06:02:29.329Z,100.00
2022-10-17T06:04:56.205Z,100.00
2022-10-17T06:07:22.863Z,100.00
2022-10-17T06:09:49.489Z,100.00
2022-10-17T06:12:16.260Z,100.00
2022-10-17T06:14:42.837Z,100.00
2022-10-17T06:17:14.860Z,100.00
2022-10-17T06:19:42.552Z,100.00
2022-10-17T06:22:09.151Z,100.00
2022-10-17T06:24:35.805Z,100.00
2022-10-17T06:27:02.432Z,100.00
2022-10-17T06:29:29.000Z,100.00
2022-10-17T06:31:55.628Z,100.00
2022-10-17T06:34:22.543Z,100.00
2022-10-17T06:36:49.258Z,100.00
2022-10-17T06:39:16.254Z,100.00
2022-10-17T06:41:42.939Z,100.00
2022-10-17T06:44:09.507Z,100.00
2022-10-17T06:46:36.238Z,100.00
2022-10-17T06:49:02.984Z,100.00
2022-10-17T06:51:29.673Z,100.00
2022-10-17T06:53:57.602Z,100.00
2022-10-17T06:56:24.330Z,100.00
2022-10-17T06:58:50.994Z,100.00
2022-10-17T07:01:17.571Z,100.00
2022-10-17T07:03:44.285Z,100.00
2022-10-17T07:06:10.894Z,100.00
2022-10-17T07:08:37.714Z,99.77
2022-10-17T07:11:17.705Z,99.31
2022-10-17T07:13:44.673Z,99.10
2022-10-17T07:16:11.480Z,98.92
2022-10-17T07:18:38.150Z,98.74
2022-10-17T07:21:05.221Z,98.69
2022-10-17T07:23:31.931Z,98.41
2022-10-17T07:26:01.725Z,98.90
2022-10-17T07:28:28.430Z,98.89
2022-10-17T07:30:55.429Z,99.15
2022-10-17T07:33:22.042Z,99.03
2022-10-17T07:35:48.638Z,98.88
2022-10-17T07:38:15.318Z,98.22
2022-10-17T07:40:41.968Z,98.33
2022-10-17T07:43:09.346Z,98.65
2022-10-17T07:45:36.101Z,98.53
2022-10-17T07:48:02.691Z,98.01
2022-10-17T07:50:29.645Z,98.18
2022-10-17T07:52:56.462Z,98.19
2022-10-17T07:55:23.478Z,98.32
2022-10-17T07:57:50.100Z,97.72
2022-10-17T08:00:16.772Z,98.36
2022-10-17T08:02:43.452Z,98.02
2022-10-17T08:05:10.324Z,97.55
2022-10-17T08:07:38.129Z,96.27
2022-10-17T08:10:05.353Z,97.09
2022-10-17T08:12:32.630Z,95.58
2022-10-17T08:15:02.457Z,95.67
2022-10-17T08:17:30.088Z,94.73
2022-10-17T08:19:56.793Z,95.13
2022-10-17T08:22:27.382Z,94.87
2022-10-17T08:24:54.269Z,94.00
2022-10-17T08:27:20.904Z,93.34
2022-10-17T08:29:47.504Z,90.17
2022-10-17T08:32:14.167Z,86.53
2022-10-17T08:34:40.813Z,84.92
2022-10-17T08:37:07.501Z,85.29
2022-10-17T08:39:34.191Z,84.85
2022-10-17T08:42:18.804Z,83.67
2022-10-17T08:45:12.615Z,85.39
2022-10-17T08:47:45.039Z,85.67
2022-10-17T08:50:15.021Z,86.52
2022-10-17T08:52:48.047Z,83.56
2022-10-17T08:55:29.373Z,77.68
2022-10-17T08:57:56.037Z,73.26
2022-10-17T09:00:22.678Z,72.53
2022-10-17T09:03:31.528Z,67.79
2022-10-17T09:06:25.975Z,65.53
2022-10-17T09:09:03.273Z,62.70
2022-10-17T09:11:48.917Z,60.08
2022-10-17T09:14:37.059Z,58.22
2022-10-17T09:17:04.985Z,58.16
2022-10-17T09:20:14.983Z,57.33
2022-10-17T09:22:50.042Z,57.45
2022-10-17T09:25:17.718Z,56.09
2022-10-17T09:28:01.599Z,54.51
2022-10-17T09:30:44.695Z,54.78
2022-10-17T09:33:34.406Z,52.22
2022-10-17T09:36:04.230Z,52.45
2022-10-17T09:38:37.866Z,51.34
2022-10-17T09:41:15.775Z,50.58
2022-10-17T09:43:54.752Z,52.64
2022-10-17T09:46:33.136Z,50.46
2022-10-17T09:49:14.781Z,50.40
2022-10-17T09:51:43.889Z,51.30
2022-10-17T09:54:58.909Z,49.77
2022-10-17T09:57:25.543Z,48.64
2022-10-17T10:00:00.266Z,48.86
2022-10-17T10:02:29.126Z,50.48
2022-10-17T10:05:05.593Z,50.05
2022-10-17T10:07:37.807Z,46.34
2022-10-17T10:10:06.492Z,50.00
2022-10-17T10:12:38.165Z,48.71
2022-10-17T10:15:32.301Z,51.25
2022-10-17T10:17:58.962Z,49.65
2022-10-17T10:20:28.580Z,51.31
2022-10-17T10:23:12.614Z,51.40
2022-10-17T10:25:39.224Z,49.49
2022-10-17T10:28:10.299Z,48.24
2022-10-17T10:30:39.182Z,52.32
2022-10-17T10:33:06.736Z,53.44
2022-10-17T10:35:36.680Z,54.19
2022-10-17T10:38:10.921Z,57.95
2022-10-17T10:40:47.456Z,59.11
2022-10-17T10:43:22.026Z,59.17
2022-10-17T10:45:49.218Z,57.29
2022-10-17T10:48:23.779Z,59.71
2022-10-17T10:51:03.543Z,60.75
2022-10-17T10:53:38.354Z,60.42
2022-10-17T10:56:08.057Z,62.66
2022-10-17T10:58:40.304Z,60.46
2022-10-17T11:01:20.489Z,59.33
2022-10-17T11:03:58.855Z,59.77
2022-10-17T11:06:29.409Z,62.71
2022-10-17T11:09:41.215Z,62.99
2022-10-17T11:12:12.765Z,64.82
2022-10-17T11:14:56.101Z,65.95
2022-10-17T11:17:28.861Z,68.21
2022-10-17T11:20:23.755Z,67.16
2022-10-17T11:22:54.814Z,68.10
2022-10-17T11:25:32.106Z,66.71
2022-10-17T11:28:02.309Z,66.54
2022-10-17T11:30:41.418Z,67.22
2022-10-17T11:33:08.747Z,68.25
2022-10-17T11:35:40.700Z,71.12
2022-10-17T11:38:15.319Z,69.07
2022-10-17T11:40:48.366Z,69.74
2022-10-17T11:43:16.769Z,67.89
2022-10-17T11:45:46.246Z,66.77
2022-10-17T11:48:17.220Z,65.75
2022-10-17T11:53:46.258Z,63.84
2022-10-17T11:56:12.881Z,65.91
2022-10-17T11:58:48.931Z,64.32
2022-10-17T12:01:51.183Z,66.36
2022-10-17T12:04:49.457Z,67.30
2022-10-17T12:07:35.733Z,67.90
2022-10-17T12:10:28.496Z,68.07
2022-10-17T12:12:56.091Z,65.68
2022-10-17T12:15:22.548Z,64.71
2022-10-17T12:18:08.948Z,64.10
2022-10-17T12:20:36.101Z,60.92
2022-10-17T12:23:11.661Z,62.33
2022-10-17T12:25:52.044Z,62.09
2022-10-17T12:28:29.301Z,60.58
2022-10-17T12:31:18.657Z,59.56
2022-10-17T12:33:49.057Z,60.88
2022-10-17T12:36:18.554Z,61.22
2022-10-17T12:38:49.224Z,62.00
2022-10-17T12:41:16.991Z,61.96
2022-10-17T12:43:45.027Z,61.80
2022-10-17T12:46:11.746Z,60.20
2022-10-17T12:48:38.246Z,59.42
2022-10-17T12:51:37.409Z,60.97
2022-10-17T12:54:14.948Z,60.61
2022-10-17T12:56:48.086Z,61.33
2022-10-17T12:59:24.770Z,61.20
2022-10-17T13:01:53.508Z,62.72
2022-10-17T13:04:20.245Z,62.03
2022-10-17T13:06:48.628Z,61.68
2022-10-17T13:09:38.053Z,59.50
2022-10-17T13:12:05.743Z,61.49
2022-10-17T13:14:33.585Z,60.03
2022-10-17T13:17:05.018Z,62.09
2022-10-17T13:19:42.156Z,60.98
2022-10-17T13:22:21.586Z,62.34
2022-10-17T13:24:48.787Z,62.28
2022-10-17T13:27:24.554Z,60.82
2022-10-17T13:29:51.203Z,62.25
2022-10-17T13:32:17.968Z,62.89
2022-10-17T13:34:44.621Z,63.39
2022-10-17T13:37:13.857Z,63.79
2022-10-17T13:39:55.197Z,64.05
2022-10-17T13:42:31.541Z,64.12
2022-10-17T13:44:58.509Z,62.94
2022-10-17T13:47:27.204Z,64.02
2022-10-17T13:49:55.518Z,64.49
2022-10-17T13:52:26.719Z,64.71
2022-10-17T13:54:53.642Z,63.12
2022-10-17T13:57:28.107Z,62.57
2022-10-17T14:00:06.018Z,63.21
2022-10-17T14:02:36.197Z,63.80
2022-10-17T14:05:20.042Z,62.76
2022-10-17T14:10:41.311Z,64.94
2022-10-17T14:13:08.482Z,66.25
2022-10-17T14:15:36.113Z,65.35
2022-10-17T14:18:08.361Z,66.01
2022-10-17T14:23:38.353Z,67.05
2022-10-17T14:26:12.593Z,64.17
2022-10-17T14:28:39.890Z,64.24
2022-10-17T14:31:17.056Z,65.76
2022-10-17T14:33:50.663Z,68.39
2022-10-17T14:36:18.461Z,67.45
2022-10-17T14:38:50.250Z,68.31
2022-10-17T14:41:47.830Z,67.77
2022-10-17T14:44:53.685Z,68.06
2022-10-17T14:47:42.263Z,68.37
2022-10-17T14:50:11.843Z,67.73
2022-10-17T14:52:38.719Z,67.86
2022-10-17T14:55:24.792Z,68.12
2022-10-17T14:57:51.585Z,68.61
2022-10-17T15:00:19.821Z,69.02
2022-10-17T15:02:46.722Z,71.36
2022-10-17T15:05:19.332Z,71.23
2022-10-17T15:07:46.975Z,72.45
2022-10-17T15:10:30.489Z,73.31
2022-10-17T15:12:59.315Z,73.64
2022-10-17T15:15:28.323Z,73.21
2022-10-17T15:17:54.982Z,73.97
2022-10-17T15:20:21.768Z,74.61
2022-10-17T15:22:48.386Z,73.30
2022-10-17T15:25:15.180Z,75.18
2022-10-17T15:27:41.888Z,74.50
2022-10-17T15:30:21.621Z,75.22
2022-10-17T15:32:49.419Z,75.62
2022-10-17T15:35:16.335Z,76.84
2022-10-17T15:37:43.306Z,76.71
2022-10-17T15:40:21.348Z,76.42
2022-10-17T15:42:48.206Z,77.29
2022-10-17T15:45:18.036Z,78.81
2022-10-17T15:47:56.308Z,80.29
2022-10-17T15:50:22.905Z,81.64
2022-10-17T15:52:49.937Z,82.61
2022-10-17T15:55:16.898Z,82.80
2022-10-17T15:57:44.984Z,83.05
2022-10-17T16:00:20.085Z,84.06
2022-10-17T16:02:46.884Z,84.76
2022-10-17T16:05:16.141Z,85.52
2022-10-17T16:07:45.781Z,84.88
2022-10-17T16:10:13.825Z,86.29
2022-10-17T16:12:40.630Z,86.78
2022-10-17T16:15:15.234Z,86.56
2022-10-17T16:17:41.844Z,87.80
2022-10-17T16:20:08.779Z,87.87
2022-10-17T16:22:36.328Z,87.82
2022-10-17T16:25:06.822Z,87.76
2022-10-17T16:27:33.689Z,88.53
2022-10-17T16:30:00.341Z,89.47
2022-10-17T16:32:27.420Z,90.95
2022-10-17T16:34:54.153Z,91.84
2022-10-17T16:37:22.411Z,92.90
2022-10-17T16:39:49.223Z,91.78
2022-10-17T16:42:15.870Z,91.49
2022-10-17T16:44:42.483Z,90.48
2022-10-17T16:47:09.193Z,89.37
2022-10-17T16:49:35.823Z,90.42
2022-10-17T16:52:02.441Z,90.38
2022-10-17T16:54:29.085Z,91.04
2022-10-17T16:56:55.761Z,91.78
2022-10-17T16:59:22.643Z,90.47
2022-10-17T17:01:49.322Z,91.15
2022-10-17T17:04:16.005Z,90.29
2022-10-17T17:06:42.729Z,88.81
2022-10-17T17:09:09.426Z,91.15
2022-10-17T17:11:36.126Z,91.46
2022-10-17T17:14:02.954Z,90.92
2022-10-17T17:16:30.484Z,91.31
2022-10-17T17:19:02.138Z,91.63
2022-10-17T17:21:28.876Z,91.75
2022-10-17T17:23:55.658Z,91.16
2022-10-17T17:26:22.612Z,91.34
2022-10-17T17:28:49.764Z,92.13
2022-10-17T17:31:20.155Z,91.87
2022-10-17T17:33:46.936Z,92.42
2022-10-17T17:36:17.919Z,92.02
2022-10-17T17:38:44.658Z,92.55
2022-10-17T17:41:15.581Z,92.11
2022-10-17T17:43:46.146Z,91.89
2022-10-17T17:46:13.400Z,93.41
2022-10-17T17:48:40.641Z,93.13
2022-10-17T17:51:08.208Z,92.29
2022-10-17T17:53:35.205Z,92.45
2022-10-17T17:56:07.723Z,93.40
2022-10-17T17:58:34.874Z,93.71
2022-10-17T18:01:02.021Z,92.99
2022-10-17T18:03:29.140Z,91.62
2022-10-17T18:05:55.784Z,92.61
2022-10-17T18:08:22.470Z,91.50
2022-10-17T18:10:49.665Z,93.11
2022-10-17T18:13:16.393Z,93.33
2022-10-17T18:15:43.666Z,92.32
2022-10-17T18:18:10.312Z,92.17
2022-10-17T18:20:42.802Z,93.46
2022-10-17T18:23:10.307Z,92.78
2022-10-17T18:25:37.012Z,92.29
2022-10-17T18:28:03.912Z,92.29
2022-10-17T18:30:33.718Z,92.61
2022-10-17T18:33:01.256Z,92.44
2022-10-17T18:38:18.035Z,92.34
2022-10-17T18:40:47.286Z,92.27
2022-10-17T18:43:16.627Z,91.82
2022-10-17T18:45:43.297Z,93.05
2022-10-17T18:48:09.891Z,93.93
2022-10-17T18:50:37.102Z,94.26
2022-10-17T18:53:03.734Z,94.26
2022-10-17T18:55:30.358Z,93.79
2022-10-17T18:57:57.001Z,93.45
2022-10-17T19:00:23.679Z,94.37
2022-10-17T19:02:50.625Z,93.84
2022-10-17T19:05:17.364Z,94.26
2022-10-17T19:07:43.989Z,94.51
2022-10-17T19:10:10.827Z,94.38
2022-10-17T19:12:37.466Z,93.25
2022-10-17T19:15:04.302Z,93.49
2022-10-17T19:17:31.483Z,92.79
2022-10-17T19:19:58.294Z,93.23
2022-10-17T19:22:24.907Z,92.72
2022-10-17T19:24:51.985Z,92.48
2022-10-17T19:27:18.560Z,93.18
2022-10-17T19:29:45.325Z,92.75
2022-10-17T19:32:15.824Z,92.96
2022-10-17T19:34:44.759Z,92.88
2022-10-17T19:37:11.402Z,93.49
2022-10-17T19:39:38.066Z,93.17
2022-10-17T19:42:06.872Z,92.55
2022-10-17T19:44:34.561Z,93.35
2022-10-17T19:47:01.218Z,93.49
2022-10-17T19:49:27.991Z,94.71
2022-10-17T19:51:54.604Z,94.52
2022-10-17T19:54:21.283Z,94.79
2022-10-17T19:56:47.925Z,95.53
2022-10-17T19:59:15.862Z,95.28
2022-10-17T20:01:43.095Z,93.55
2022-10-17T20:04:10.078Z,94.64
2022-10-17T20:06:36.923Z,94.09
2022-10-17T20:09:04.595Z,93.37
2022-10-17T20:11:31.197Z,93.38
2022-10-17T20:13:59.693Z,93.68
2022-10-17T20:16:28.357Z,94.34
2022-10-17T20:18:56.070Z,94.03
2022-10-17T20:21:26.613Z,94.71
2022-10-17T20:23:53.854Z,94.68
2022-10-17T20:26:37.187Z,95.56
2022-10-17T20:29:05.445Z,95.84
2022-10-17T20:31:32.212Z,94.75
2022-10-17T20:33:59.284Z,95.65
2022-10-17T20:36:25.946Z,95.31
2022-10-17T20:38:56.712Z,95.16
2022-10-17T20:41:23.389Z,95.20
2022-10-17T20:43:51.007Z,93.88
2022-10-17T20:46:35.025Z,95.00
2022-10-17T20:49:02.876Z,95.04
2022-10-17T20:51:29.545Z,95.68
2022-10-17T20:56:25.396Z,96.21
2022-10-17T20:58:53.509Z,94.46
2022-10-17T21:01:20.223Z,95.09
2022-10-17T21:03:46.936Z,94.92
2022-10-17T21:06:13.651Z,95.13
2022-10-17T21:08:40.437Z,94.84
2022-10-17T21:11:15.962Z,94.97
2022-10-17T21:13:42.676Z,95.57
2022-10-17T21:16:18.788Z,95.29
2022-10-17T21:18:45.406Z,94.67
2022-10-17T21:21:17.888Z,95.49
2022-10-17T21:23:45.667Z,94.71
2022-10-17T21:26:12.351Z,95.02
2022-10-17T21:28:39.982Z,95.90
2022-10-17T21:31:17.652Z,95.08
2022-10-17T21:33:46.442Z,95.53
2022-10-17T21:36:13.074Z,95.29
2022-10-17T21:38:39.973Z,95.22
2022-10-17T21:41:07.535Z,95.47
2022-10-17T21:43:34.696Z,95.81
2022-10-17T21:46:03.002Z,95.16
2022-10-17T21:48:29.720Z,95.02
2022-10-17T21:51:00.601Z,95.30
2022-10-17T21:53:27.742Z,96.08
2022-10-17T21:55:54.348Z,96.35
2022-10-17T21:58:21.749Z,95.32
2022-10-17T22:00:48.320Z,95.51
2022-10-17T22:03:14.972Z,94.83
2022-10-17T22:05:41.639Z,94.97
2022-10-17T22:08:08.252Z,94.93
2022-10-17T22:10:38.304Z,95.16
2022-10-17T22:13:05.046Z,94.90
2022-10-17T22:15:31.690Z,95.77
2022-10-17T22:17:58.545Z,95.72
2022-10-17T22:20:25.100Z,95.42
2022-10-17T22:22:51.723Z,95.50
2022-10-17T22:25:18.349Z,96.23
2022-10-17T22:27:44.914Z,95.58
2022-10-17T22:30:11.807Z,95.30
2022-10-17T22:32:38.391Z,95.27
2022-10-17T22:35:05.348Z,95.17
2022-10-17T22:37:32.323Z,94.69
2022-10-17T22:39:59.298Z,95.26
2022-10-17T22:42:25.931Z,96.22
2022-10-17T22:44:52.584Z,94.92
2022-10-17T22:47:19.224Z,95.12
2022-10-17T22:49:45.925Z,95.61
2022-10-17T22:52:12.536Z,95.23
2022-10-17T22:54:39.220Z,94.91
2022-10-17T22:57:05.833Z,96.02
2022-10-17T22:59:33.305Z,95.75
2022-10-17T23:01:59.928Z,96.31
2022-10-17T23:04:26.582Z,96.16
2022-10-17T23:06:53.146Z,96.98
2022-10-17T23:09:20.897Z,96.87
2022-10-17T23:11:47.635Z,97.36
2022-10-17T23:14:14.305Z,97.05
2022-10-17T23:16:40.886Z,96.61
2022-10-17T23:19:07.562Z,96.71
2022-10-17T23:21:34.173Z,96.62
2022-10-17T23:24:00.912Z,96.85
2022-10-17T23:26:27.521Z,96.24
2022-10-17T23:28:54.515Z,96.32
2022-10-17T23:31:21.669Z,96.64
2022-10-17T23:33:48.943Z,97.05
2022-10-17T23:36:16.665Z,97.10
2022-10-17T23:38:43.919Z,97.77
2022-10-17T23:41:10.565Z,98.00
2022-10-17T23:43:37.275Z,98.25
2022-10-17T23:46:04.317Z,98.34
2022-10-17T23:48:30.970Z,98.33
2022-10-17T23:50:57.626Z,98.29
2022-10-17T23:53:24.414Z,98.24
2022-10-17T23:55:51.015Z,97.85
2022-10-17T23:58:17.636Z,98.16
